Time;durP1;ratioP1;P1;durP2;ratioP2;P2;SDS_P1;SDS_P2;PMS_P1;PMS_P2;Temp;Humidity;BMP_temperature;BMP_pressure;BME280_temperature;BME280_humidity;BME280_pressure;Samples;Min_cycle;Max_cycle;Signal;HPM_P1;HPM_P2
2023/02/13 00:01:24;;;;;;;;;1.50;1.50;;;;;;;;120113;1181;25796;-64
2023/02/13 00:03:53;;;;;;;;;2.00;2.00;;;;;;;;119968;1190;25104;-63
2023/02/13 00:06:22;;;;;;;;;0.00;0.00;;;;;;;;120119;1190;25805;-64
2023/02/13 00:08:50;;;;;;;;;2.50;2.00;;;;;;;;120109;1190;24855;-64
2023/02/13 00:11:19;;;;;;;;;6.00;3.00;;;;;;;;120111;1181;24773;-63
2023/02/13 00:13:47;;;;;;;;;3.33;2.67;;;;;;;;120105;1182;24880;-65
2023/02/13 00:16:16;;;;;;;;;3.67;3.00;;;;;;;;120117;1189;25384;-63
2023/02/13 00:18:44;;;;;;;;;3.50;2.50;;;;;;;;120134;1190;25201;-63
2023/02/13 00:21:14;;;;;;;;;5.00;2.00;;;;;;;;120135;1182;24934;-63
2023/02/13 00:23:42;;;;;;;;;1.00;1.00;;;;;;;;120119;1181;25441;-63
2023/02/13 00:26:13;;;;;;;;;4.00;1.33;;;;;;;;119962;1190;24773;-65
2023/02/13 00:28:42;;;;;;;;;2.50;1.75;;;;;;;;120097;1181;25382;-63
2023/02/13 00:31:16;;;;;;;;;3.50;2.00;;;;;;;;119889;1190;25314;-65
2023/02/13 00:33:45;;;;;;;;;1.75;1.75;;;;;;;;119938;1182;25622;-64
2023/02/13 00:36:16;;;;;;;;;4.25;2.25;;;;;;;;119939;1190;25545;-65
2023/02/13 00:38:45;;;;;;;;;5.50;2.00;;;;;;;;119907;1190;25552;-65
2023/02/13 00:41:16;;;;;;;;;3.00;3.00;;;;;;;;119889;1190;25655;-64
2023/02/13 00:43:45;;;;;;;;;3.67;1.33;;;;;;;;119911;1190;25063;-64
2023/02/13 00:46:14;;;;;;;;;2.00;2.00;;;;;;;;119882;1190;25380;-65
2023/02/13 00:48:43;;;;;;;;;4.00;1.50;;;;;;;;119722;1190;25546;-65
2023/02/13 00:51:11;;;;;;;;;1.75;1.75;;;;;;;;119919;1190;25465;-65
2023/02/13 00:53:39;;;;;;;;;1.33;1.33;;;;;;;;119945;1190;26391;-64
2023/02/13 00:56:08;;;;;;;;;3.25;2.75;;;;;;;;119919;1190;25274;-64
2023/02/13 00:58:36;;;;;;;;;3.75;3.00;;;;;;;;119924;1190;25342;-64
2023/02/13 01:01:05;;;;;;;;;1.50;1.50;;;;;;;;120110;1186;25473;-64
2023/02/13 01:03:33;;;;;;;;;2.50;1.25;;;;;;;;120114;1189;25375;-65
2023/02/13 01:06:02;;;;;;;;;1.00;1.00;;;;;;;;120091;1189;25387;-66
2023/02/13 01:08:30;;;;;;;;;2.00;1.50;;;;;;;;120101;1189;24826;-66
2023/02/13 01:10:58;;;;;;;;;2.00;2.00;;;;;;;;120115;1189;25545;-66
2023/02/13 01:13:27;;;;;;;;;1.33;1.33;;;;;;;;120114;1189;24992;-65
2023/02/13 01:15:55;;;;;;;;;3.00;1.33;;;;;;;;119950;1187;24984;-63
2023/02/13 01:18:23;;;;;;;;;3.00;3.00;;;;;;;;120116;1190;25079;-64
2023/02/13 01:21:00;;;;;;;;;2.00;2.00;;;;;;;;120092;1190;24879;-66
2023/02/13 01:23:30;;;;;;;;;3.00;3.00;;;;;;;;119955;1182;25591;-66
2023/02/13 01:25:59;;;;;;;;;0.00;0.00;;;;;;;;119924;1183;25152;-67
2023/02/13 01:28:27;;;;;;;;;3.00;2.00;;;;;;;;119939;1190;25452;-67
2023/02/13 01:30:56;;;;;;;;;3.00;2.50;;;;;;;;119955;1183;24941;-66
2023/02/13 01:33:27;;;;;;;;;1.33;1.33;;;;;;;;120082;1189;24967;-66
2023/02/13 01:35:55;;;;;;;;;3.75;2.50;;;;;;;;119935;1190;24939;-66
2023/02/13 01:38:24;;;;;;;;;2.00;0.75;;;;;;;;119943;1186;25434;-65
2023/02/13 01:40:53;;;;;;;;;2.00;2.00;;;;;;;;120107;1189;25542;-65
2023/02/13 01:43:23;;;;;;;;;2.00;2.00;;;;;;;;119964;1182;25689;-64
2023/02/13 01:45:55;;;;;;;;;1.50;1.50;;;;;;;;120103;1185;24854;-64
2023/02/13 01:48:25;;;;;;;;;3.00;3.00;;;;;;;;120125;1189;25102;-65
2023/02/13 01:50:58;;;;;;;;;1.00;0.00;;;;;;;;119913;1188;25479;-68
2023/02/13 01:53:32;;;;;;;;;2.00;1.00;;;;;;;;119719;1190;25251;-67
2023/02/13 01:56:21;;;;;;;;;3.25;2.00;;;;;;;;119911;1182;25601;-68
2023/02/13 01:58:52;;;;;;;;;2.00;1.25;;;;;;;;119924;1190;25548;-67
2023/02/13 02:01:21;;;;;;;;;2.00;2.00;;;;;;;;119940;1190;25134;-66
2023/02/13 02:03:58;;;;;;;;;3.25;1.75;;;;;;;;119935;1190;24887;-67
2023/02/13 02:06:29;;;;;;;;;1.00;1.00;;;;;;;;119900;1191;25033;-67
2023/02/13 02:09:02;;;;;;;;;2.00;1.00;;;;;;;;119928;1190;24987;-67
2023/02/13 02:12:06;;;;;;;;;4.00;2.00;;;;;;;;119904;1182;25201;-66
2023/02/13 02:14:35;;;;;;;;;2.33;2.33;;;;;;;;119471;1190;25150;-65
2023/02/13 02:17:03;;;;;;;;;2.00;2.00;;;;;;;;119917;1182;24890;-65
2023/02/13 02:19:48;;;;;;;;;3.50;2.00;;;;;;;;119925;1182;25649;-67
2023/02/13 02:22:43;;;;;;;;;1.00;1.00;;;;;;;;119933;1187;24708;-68
2023/02/13 02:25:23;;;;;;;;;2.50;2.50;;;;;;;;120118;1189;25235;-67
2023/02/13 02:28:07;;;;;;;;;1.75;1.75;;;;;;;;120122;1182;25546;-66
2023/02/13 02:30:41;;;;;;;;;1.75;1.75;;;;;;;;120101;1189;26311;-67
2023/02/13 02:33:29;;;;;;;;;2.75;2.00;;;;;;;;120114;1189;25581;-68
2023/02/13 02:36:06;;;;;;;;;4.00;3.00;;;;;;;;120140;1182;25303;-68
2023/02/13 02:38:34;;;;;;;;;9.00;3.50;;;;;;;;120099;1182;25321;-69
2023/02/13 02:41:08;;;;;;;;;6.00;4.00;;;;;;;;120114;1181;25029;-67
2023/02/13 02:44:07;;;;;;;;;6.00;4.50;;;;;;;;120106;1190;25805;-67
2023/02/13 02:49:58;;;;;;;;;6.00;4.50;;;;;;;;119720;1182;24707;-66
2023/02/13 02:52:42;;;;;;;;;7.00;6.00;;;;;;;;119960;1183;25168;-67
2023/02/13 02:55:13;;;;;;;;;10.50;6.50;;;;;;;;120114;1190;25172;-68
2023/02/13 03:06:56;;;;;;;;;11.75;3.25;;;;;;;;119893;1182;26054;-64
2023/02/13 03:15:06;;;;;;;;;2.50;2.50;;;;;;;;119939;1190;25234;-65
2023/02/13 03:23:35;;;;;;;;;7.33;3.33;;;;;;;;119940;1190;25298;-65
2023/02/13 03:26:14;;;;;;;;;4.50;2.50;;;;;;;;120128;1185;24802;-65
2023/02/13 03:32:09;;;;;;;;;7.00;2.67;;;;;;;;120088;1182;25157;-64
2023/02/13 03:40:36;;;;;;;;;4.00;3.75;;;;;;;;119939;1186;24969;-65
2023/02/13 03:43:14;;;;;;;;;3.50;3.25;;;;;;;;119881;1182;25683;-64
2023/02/13 03:45:55;;;;;;;;;4.00;3.50;;;;;;;;119936;1187;25280;-64
2023/02/13 03:51:24;;;;;;;;;5.67;3.00;;;;;;;;120016;1186;25260;-63
2023/02/13 03:53:55;;;;;;;;;4.25;2.75;;;;;;;;119942;1187;25106;-64
2023/02/13 03:59:21;;;;;;;;;7.00;4.00;;;;;;;;119883;1190;24814;-64
2023/02/13 04:01:59;;;;;;;;;8.00;4.00;;;;;;;;120045;1176;24989;-63
2023/02/13 04:04:45;;;;;;;;;4.67;2.33;;;;;;;;119902;1190;24718;-64
2023/02/13 04:07:28;;;;;;;;;6.00;2.67;;;;;;;;119898;1190;25605;-65
2023/02/13 04:10:18;;;;;;;;;2.67;0.67;;;;;;;;119931;1190;24960;-65
2023/02/13 04:13:34;;;;;;;;;6.25;4.00;;;;;;;;119931;1190;24983;-65
2023/02/13 04:16:09;;;;;;;;;5.25;5.00;;;;;;;;119927;1177;25666;-64
2023/02/13 04:18:38;;;;;;;;;4.00;4.00;;;;;;;;119934;1182;25326;-64
2023/02/13 04:21:07;;;;;;;;;7.50;2.50;;;;;;;;119943;1181;25154;-64
2023/02/13 04:23:35;;;;;;;;;3.25;3.25;;;;;;;;119938;1178;24946;-64
2023/02/13 04:26:11;;;;;;;;;7.25;5.25;;;;;;;;119911;1190;25535;-64
2023/02/13 04:28:39;;;;;;;;;8.00;4.00;;;;;;;;119960;1190;24789;-63
2023/02/13 04:31:07;;;;;;;;;6.75;5.25;;;;;;;;120083;1189;25010;-65
2023/02/13 04:33:36;;;;;;;;;4.67;2.00;;;;;;;;119948;1189;25159;-64
2023/02/13 04:36:04;;;;;;;;;3.00;3.00;;;;;;;;119950;1190;24888;-64
2023/02/13 04:38:33;;;;;;;;;2.50;2.00;;;;;;;;119946;1190;25179;-64
2023/02/13 04:41:01;;;;;;;;;4.50;3.75;;;;;;;;119937;1182;25214;-64
2023/02/13 04:43:29;;;;;;;;;7.00;4.00;;;;;;;;120098;1190;25118;-64
2023/02/13 04:45:57;;;;;;;;;0.50;0.50;;;;;;;;119943;1190;24904;-64
2023/02/13 04:48:26;;;;;;;;;4.00;3.00;;;;;;;;119915;1190;25116;-66
2023/02/13 04:50:54;;;;;;;;;5.00;3.67;;;;;;;;119979;1190;25162;-65
2023/02/13 04:53:23;;;;;;;;;5.00;4.00;;;;;;;;120114;1189;25013;-64
2023/02/13 04:55:52;;;;;;;;;4.00;3.00;;;;;;;;120122;1182;25416;-65
2023/02/13 04:58:20;;;;;;;;;5.00;3.50;;;;;;;;119929;1190;25159;-64
2023/02/13 05:00:48;;;;;;;;;3.33;3.33;;;;;;;;119923;1185;25637;-64
2023/02/13 05:03:16;;;;;;;;;2.50;2.00;;;;;;;;119925;1190;24908;-65
2023/02/13 05:05:44;;;;;;;;;3.75;2.50;;;;;;;;120073;1186;25264;-64
2023/02/13 05:08:14;;;;;;;;;3.00;3.00;;;;;;;;120107;1190;24957;-64
2023/02/13 05:10:43;;;;;;;;;5.50;3.00;;;;;;;;119932;1183;24688;-65
2023/02/13 05:13:12;;;;;;;;;5.00;3.00;;;;;;;;119954;1190;25418;-64
2023/02/13 05:15:41;;;;;;;;;5.00;4.00;;;;;;;;120187;1182;25479;-64
2023/02/13 05:18:09;;;;;;;;;3.25;3.25;;;;;;;;119922;1190;24879;-63
2023/02/13 05:20:38;;;;;;;;;5.00;2.00;;;;;;;;120091;1190;25659;-65
2023/02/13 05:23:21;;;;;;;;;5.75;3.50;;;;;;;;120112;1189;25527;-64
2023/02/13 05:25:49;;;;;;;;;5.75;4.00;;;;;;;;119927;1190;24949;-64
2023/02/13 05:31:04;;;;;;;;;5.75;3.25;;;;;;;;120114;1189;25428;-63
2023/02/13 05:33:33;;;;;;;;;3.50;2.00;;;;;;;;120114;1189;25092;-64
2023/02/13 05:36:01;;;;;;;;;4.75;4.75;;;;;;;;120107;1189;25568;-64
2023/02/13 05:38:29;;;;;;;;;4.75;3.00;;;;;;;;119961;1186;24879;-64
2023/02/13 05:41:01;;;;;;;;;4.25;4.25;;;;;;;;119930;1187;25621;-63
2023/02/13 05:43:29;;;;;;;;;6.67;4.33;;;;;;;;120009;1182;24889;-63
2023/02/13 05:46:04;;;;;;;;;7.67;6.00;;;;;;;;120002;1190;25559;-63
2023/02/13 05:48:36;;;;;;;;;6.25;4.75;;;;;;;;120009;1186;24785;-62
2023/02/13 05:51:04;;;;;;;;;8.50;6.00;;;;;;;;119861;1190;24917;-61
2023/02/13 05:53:35;;;;;;;;;7.25;4.75;;;;;;;;119923;1187;25654;-61
2023/02/13 05:56:05;;;;;;;;;9.25;4.00;;;;;;;;119923;1187;25149;-60
2023/02/13 05:58:33;;;;;;;;;6.67;4.00;;;;;;;;119975;1187;26168;-61
2023/02/13 06:01:02;;;;;;;;;7.67;6.00;;;;;;;;119935;1190;25317;-61
2023/02/13 06:03:31;;;;;;;;;6.75;4.50;;;;;;;;119822;1190;25076;-61
2023/02/13 06:05:59;;;;;;;;;9.25;5.25;;;;;;;;119845;1190;25301;-61
2023/02/13 06:08:28;;;;;;;;;8.50;6.00;;;;;;;;120127;1185;25006;-61
2023/02/13 06:10:57;;;;;;;;;4.25;4.25;;;;;;;;120010;1190;25092;-61
2023/02/13 06:13:26;;;;;;;;;4.00;3.00;;;;;;;;119974;1190;24686;-61
2023/02/13 06:15:54;;;;;;;;;6.75;6.75;;;;;;;;120010;1179;25159;-61
2023/02/13 06:18:22;;;;;;;;;11.33;7.67;;;;;;;;119920;1190;24734;-61
2023/02/13 06:20:51;;;;;;;;;7.50;6.00;;;;;;;;119891;1179;25214;-61
2023/02/13 06:23:19;;;;;;;;;7.50;6.00;;;;;;;;119736;1186;25594;-61
2023/02/13 06:25:47;;;;;;;;;8.00;6.50;;;;;;;;119949;1177;25345;-61
2023/02/13 06:28:16;;;;;;;;;9.00;8.00;;;;;;;;119951;1186;25050;-61
2023/02/13 06:30:44;;;;;;;;;6.00;5.00;;;;;;;;120049;1186;25442;-62
2023/02/13 06:33:12;;;;;;;;;3.75;3.75;;;;;;;;120116;1182;25417;-62
2023/02/13 06:35:40;;;;;;;;;7.00;4.00;;;;;;;;120059;1189;25444;-63
2023/02/13 06:38:09;;;;;;;;;5.50;3.75;;;;;;;;119922;1182;25440;-62
2023/02/13 06:40:37;;;;;;;;;6.75;2.75;;;;;;;;119989;1182;26220;-63
2023/02/13 06:43:05;;;;;;;;;6.50;4.75;;;;;;;;120070;1182;24755;-62
2023/02/13 06:45:34;;;;;;;;;5.50;5.50;;;;;;;;120059;1186;24806;-64
2023/02/13 06:48:02;;;;;;;;;6.67;4.33;;;;;;;;120030;1183;24708;-64
2023/02/13 06:50:30;;;;;;;;;4.75;4.75;;;;;;;;119913;1190;24845;-63
2023/02/13 06:52:59;;;;;;;;;4.25;4.25;;;;;;;;119990;1182;25542;-64
2023/02/13 06:55:28;;;;;;;;;4.00;3.00;;;;;;;;119921;1187;24795;-63
2023/02/13 06:57:56;;;;;;;;;5.25;5.25;;;;;;;;120161;1186;25848;-64
2023/02/13 07:00:25;;;;;;;;;5.00;4.00;;;;;;;;120120;1185;25423;-63
2023/02/13 07:02:54;;;;;;;;;5.75;5.75;;;;;;;;120038;1186;24821;-62
2023/02/13 07:05:23;;;;;;;;;9.67;5.33;;;;;;;;120129;1189;26083;-63
2023/02/13 07:07:51;;;;;;;;;7.00;7.00;;;;;;;;120128;1189;25549;-62
2023/02/13 07:10:20;;;;;;;;;10.67;6.00;;;;;;;;120102;1190;25247;-62
2023/02/13 07:12:49;;;;;;;;;7.00;7.00;;;;;;;;119932;1190;24753;-61
2023/02/13 07:15:33;;;;;;;;;6.00;6.00;;;;;;;;120065;1189;26170;-62
2023/02/13 07:18:02;;;;;;;;;7.25;6.00;;;;;;;;119863;1183;25262;-62
2023/02/13 07:20:31;;;;;;;;;9.00;6.00;;;;;;;;119895;1190;25548;-62
2023/02/13 07:23:01;;;;;;;;;7.50;6.00;;;;;;;;119926;1190;25081;-61
2023/02/13 07:25:30;;;;;;;;;7.50;7.00;;;;;;;;119930;1182;25418;-63
2023/02/13 07:28:05;;;;;;;;;5.75;3.00;;;;;;;;119984;1182;24830;-64
2023/02/13 07:30:34;;;;;;;;;5.75;5.00;;;;;;;;119899;1190;25425;-61
2023/02/13 07:33:03;;;;;;;;;8.00;8.00;;;;;;;;120121;1182;25303;-61
2023/02/13 07:35:32;;;;;;;;;7.25;6.25;;;;;;;;119922;1187;25494;-60
2023/02/13 07:38:00;;;;;;;;;9.00;8.00;;;;;;;;119935;1182;25655;-61
2023/02/13 07:40:29;;;;;;;;;7.00;5.33;;;;;;;;120117;1189;25006;-60
2023/02/13 07:43:00;;;;;;;;;5.00;5.00;;;;;;;;119953;1182;25279;-62
2023/02/13 07:45:29;;;;;;;;;8.75;7.00;;;;;;;;119923;1182;25427;-63
2023/02/13 07:47:58;;;;;;;;;6.75;6.75;;;;;;;;119749;1183;25424;-62
2023/02/13 07:50:27;;;;;;;;;13.00;8.67;;;;;;;;119914;1182;24674;-63
2023/02/13 07:57:59;;;;;;;;;18.25;14.00;;;;;;;;116274;1196;23601;-58
2023/02/13 08:00:28;;;;;;;;;15.00;14.50;;;;;;;;118026;1187;24799;-57
2023/02/13 08:02:59;;;;;;;;;20.00;17.67;;;;;;;;118126;1177;25531;-56
2023/02/13 08:05:28;;;;;;;;;9.50;8.00;;;;;;;;118043;1177;25217;-57
2023/02/13 08:07:57;;;;;;;;;17.50;13.50;;;;;;;;117883;1187;25175;-57
2023/02/13 08:13:14;;;;;;;;;44.00;31.00;;;;;;;;117855;1177;25575;-58
2023/02/13 08:15:46;;;;;;;;;46.67;36.00;;;;;;;;117919;1178;24900;-60
2023/02/13 08:18:14;;;;;;;;;41.00;34.00;;;;;;;;117813;1177;25586;-59
2023/02/13 08:20:46;;;;;;;;;34.33;31.67;;;;;;;;117856;1177;25247;-60
2023/02/13 08:23:14;;;;;;;;;37.00;31.00;;;;;;;;117827;1190;25183;-57
2023/02/13 08:25:43;;;;;;;;;35.00;30.00;;;;;;;;117935;1177;24798;-58
2023/02/13 08:28:11;;;;;;;;;41.33;32.33;;;;;;;;117877;1190;25464;-61
2023/02/13 08:30:39;;;;;;;;;39.00;30.00;;;;;;;;117805;1177;25121;-63
2023/02/13 08:33:08;;;;;;;;;29.33;27.00;;;;;;;;117838;1177;25092;-56
2023/02/13 08:35:37;;;;;;;;;34.00;28.67;;;;;;;;117819;1177;25553;-58
2023/02/13 08:38:06;;;;;;;;;33.00;26.33;;;;;;;;117856;1187;25033;-61
2023/02/13 08:40:34;;;;;;;;;29.67;23.67;;;;;;;;117805;1180;25099;-60
2023/02/13 08:43:04;;;;;;;;;32.00;26.25;;;;;;;;117971;1190;24836;-59
2023/02/13 08:45:34;;;;;;;;;33.50;26.00;;;;;;;;117829;1190;25599;-68
2023/02/13 08:48:03;;;;;;;;;27.75;23.75;;;;;;;;117941;1178;25675;-59
2023/02/13 08:50:31;;;;;;;;;31.00;25.00;;;;;;;;118160;1190;25397;-59
2023/02/13 08:53:03;;;;;;;;;27.50;20.50;;;;;;;;117887;1187;25161;-59
2023/02/13 08:55:32;;;;;;;;;26.67;22.00;;;;;;;;117804;1177;25344;-56
2023/02/13 08:58:03;;;;;;;;;31.33;25.33;;;;;;;;117877;1177;25291;-58
2023/02/13 09:00:31;;;;;;;;;28.50;24.00;;;;;;;;117802;1177;26073;-61
2023/02/13 09:03:01;;;;;;;;;30.00;23.00;;;;;;;;117814;1178;25062;-59
2023/02/13 09:05:31;;;;;;;;;26.00;21.00;;;;;;;;117781;1187;25395;-57
2023/02/13 09:08:02;;;;;;;;;29.00;22.67;;;;;;;;117920;1190;25163;-59
2023/02/13 09:10:31;;;;;;;;;22.50;19.00;;;;;;;;117872;1177;24682;-58
2023/02/13 09:13:02;;;;;;;;;27.00;25.00;;;;;;;;117840;1177;24955;-56
2023/02/13 09:15:32;;;;;;;;;33.67;25.33;;;;;;;;117806;1180;25384;-59
2023/02/13 09:18:00;;;;;;;;;30.00;21.67;;;;;;;;117813;1191;25435;-58
2023/02/13 09:20:29;;;;;;;;;28.33;21.67;;;;;;;;117787;1179;25379;-58
2023/02/13 09:22:57;;;;;;;;;26.33;23.00;;;;;;;;117755;1187;25513;-58
2023/02/13 09:25:25;;;;;;;;;19.00;18.00;;;;;;;;117752;1177;25318;-59
2023/02/13 09:27:54;;;;;;;;;25.25;20.50;;;;;;;;117847;1177;25969;-61
2023/02/13 09:30:22;;;;;;;;;29.00;25.00;;;;;;;;117859;1177;26211;-59
2023/02/13 09:32:52;;;;;;;;;25.67;23.00;;;;;;;;117845;1177;25432;-58
2023/02/13 09:35:22;;;;;;;;;29.75;22.25;;;;;;;;117817;1179;25546;-61
2023/02/13 09:37:50;;;;;;;;;37.33;30.33;;;;;;;;117839;1190;24916;-61
2023/02/13 09:40:45;;;;;;;;;41.00;30.00;;;;;;;;117816;1177;25614;-62
2023/02/13 09:43:27;;;;;;;;;31.33;28.00;;;;;;;;117857;1191;25457;-61
2023/02/13 09:46:16;;;;;;;;;41.50;34.00;;;;;;;;117845;1177;25044;-60
2023/02/13 09:48:49;;;;;;;;;41.00;32.50;;;;;;;;117908;1183;24954;-59
2023/02/13 09:51:20;;;;;;;;;34.33;25.33;;;;;;;;117829;1177;24733;-58
2023/02/13 09:54:03;;;;;;;;;34.00;30.67;;;;;;;;117856;1191;24889;-59
2023/02/13 09:56:37;;;;;;;;;29.00;23.00;;;;;;;;117839;1177;25022;-59
2023/02/13 09:59:22;;;;;;;;;36.00;25.67;;;;;;;;117816;1177;25500;-60
2023/02/13 10:01:54;;;;;;;;;30.67;24.33;;;;;;;;117861;1177;24863;-65
2023/02/13 10:04:46;;;;;;;;;31.67;30.33;;;;;;;;117876;1177;25466;-57
2023/02/13 10:07:37;;;;;;;;;35.00;28.50;;;;;;;;117937;1179;25498;-62
2023/02/13 10:10:27;;;;;;;;;34.00;28.00;;;;;;;;117941;1181;25407;-60
2023/02/13 10:13:22;;;;;;;;;33.00;26.00;;;;;;;;118341;1176;25504;31
2023/02/13 10:16:02;;;;;;;;;33.00;31.00;;;;;;;;117479;1184;25123;-59
2023/02/13 10:18:58;;;;;;;;;34.00;26.00;;;;;;;;117412;1184;25098;-60
2023/02/13 10:21:34;;;;;;;;;29.00;27.00;;;;;;;;117447;1194;24941;-62
2023/02/13 10:24:11;;;;;;;;;28.50;24.50;;;;;;;;117457;1182;25218;-61
2023/02/13 10:26:45;;;;;;;;;33.67;26.00;;;;;;;;117421;1192;24954;-62
2023/02/13 10:32:16;;;;;;;;;26.00;22.00;;;;;;;;117391;1181;24761;-59
2023/02/13 10:34:46;;;;;;;;;24.00;20.00;;;;;;;;117444;1194;25289;-60
2023/02/13 10:37:18;;;;;;;;;36.00;29.50;;;;;;;;117405;1186;25653;-58
2023/02/13 10:39:55;;;;;;;;;25.50;25.00;;;;;;;;117310;1192;25334;-59
2023/02/13 10:42:52;;;;;;;;;29.50;21.50;;;;;;;;117297;1182;25768;-61
2023/02/13 10:46:05;;;;;;;;;28.50;23.00;;;;;;;;117382;1182;25543;-67
2023/02/13 10:48:47;;;;;;;;;29.00;22.00;;;;;;;;117268;1183;25045;-61
2023/02/13 10:51:34;;;;;;;;;27.50;23.00;;;;;;;;117368;1189;25424;-58
2023/02/13 10:54:03;;;;;;;;;20.00;20.00;;;;;;;;117400;1194;25122;-59
2023/02/13 10:56:50;;;;;;;;;22.00;15.00;;;;;;;;117414;1181;25893;-61
2023/02/13 10:59:28;;;;;;;;;20.67;16.33;;;;;;;;117433;1182;25825;-62
2023/02/13 11:02:03;;;;;;;;;27.00;21.00;;;;;;;;117416;1194;25300;-62
2023/02/13 11:04:32;;;;;;;;;23.00;19.00;;;;;;;;117429;1182;25151;-63
2023/02/13 11:07:03;;;;;;;;;26.00;23.00;;;;;;;;117442;1182;25027;-60
2023/02/13 11:09:37;;;;;;;;;22.00;19.00;;;;;;;;117447;1185;24876;-60
2023/02/13 11:12:29;;;;;;;;;25.50;21.50;;;;;;;;117349;1183;25243;-59
2023/02/13 11:15:05;;;;;;;;;24.00;21.00;;;;;;;;117410;1193;25586;-61
2023/02/13 11:17:39;;;;;;;;;26.00;21.00;;;;;;;;117367;1195;25299;-59
2023/02/13 11:20:35;;;;;;;;;30.00;25.00;;;;;;;;117315;1192;25708;-59
2023/02/13 11:23:23;;;;;;;;;27.00;21.00;;;;;;;;117365;1182;26449;-61
2023/02/13 11:25:56;;;;;;;;;23.50;22.00;;;;;;;;117390;1187;25607;-58
2023/02/13 11:28:28;;;;;;;;;24.00;24.00;;;;;;;;117444;1181;25413;-60
2023/02/13 11:31:33;;;;;;;;;31.00;18.00;;;;;;;;117539;1184;24795;-61
2023/02/13 11:34:20;;;;;;;;;22.00;19.00;;;;;;;;117403;1182;25443;-58
2023/02/13 11:36:54;;;;;;;;;23.75;16.50;;;;;;;;117362;1184;24930;-59
2023/02/13 11:39:25;;;;;;;;;25.67;18.67;;;;;;;;117357;1184;25633;-61
2023/02/13 11:41:53;;;;;;;;;23.00;18.00;;;;;;;;117435;1194;24909;-57
2023/02/13 11:44:32;;;;;;;;;29.00;21.00;;;;;;;;117373;1194;25681;-56
2023/02/13 11:47:02;;;;;;;;;29.00;20.00;;;;;;;;119421;1185;25828;-62
2023/02/13 11:49:35;;;;;;;;;31.00;20.00;;;;;;;;118592;1186;25055;-58
2023/02/13 11:52:07;;;;;;;;;21.50;16.50;;;;;;;;117420;1182;25041;-58
2023/02/13 11:54:42;;;;;;;;;23.00;19.00;;;;;;;;117369;1182;25648;-58
2023/02/13 11:57:24;;;;;;;;;25.50;21.50;;;;;;;;117406;1193;25488;-59
2023/02/13 11:59:53;;;;;;;;;20.50;18.00;;;;;;;;117285;1187;24743;-59
2023/02/13 12:02:23;;;;;;;;;24.50;21.00;;;;;;;;117346;1182;24981;-60
2023/02/13 12:04:54;;;;;;;;;24.00;22.00;;;;;;;;117432;1183;25571;-63
2023/02/13 12:07:28;;;;;;;;;33.00;23.00;;;;;;;;117390;1195;25208;-59
2023/02/13 12:10:00;;;;;;;;;;;;;;;;;;117379;1183;24906;-59
2023/02/13 12:12:35;;;;;;;;;24.50;21.00;;;;;;;;117428;1186;25094;-60
2023/02/13 12:15:18;;;;;;;;;24.75;20.25;;;;;;;;117390;1186;25357;-61
2023/02/13 12:17:55;;;;;;;;;18.00;14.00;;;;;;;;117385;1194;25332;-59
2023/02/13 12:20:26;;;;;;;;;20.50;16.50;;;;;;;;117461;1187;25534;-58
2023/02/13 12:23:00;;;;;;;;;23.00;21.50;;;;;;;;117326;1183;25158;-57
2023/02/13 12:25:45;;;;;;;;;22.25;20.50;;;;;;;;117394;1189;25559;-57
2023/02/13 12:28:31;;;;;;;;;19.50;18.50;;;;;;;;117394;1189;24753;-58
2023/02/13 12:31:31;;;;;;;;;25.00;20.33;;;;;;;;117405;1181;24811;-59
2023/02/13 12:34:18;;;;;;;;;17.00;13.00;;;;;;;;117457;1181;25095;-59
2023/02/13 12:36:49;;;;;;;;;26.50;21.50;;;;;;;;117421;1182;25241;-60
2023/02/13 12:39:27;;;;;;;;;26.00;20.00;;;;;;;;117421;1182;25333;-64
2023/02/13 12:42:18;;;;;;;;;29.67;20.33;;;;;;;;117343;1182;26347;-59
2023/02/13 12:44:49;;;;;;;;;20.67;17.33;;;;;;;;117280;1194;25699;-60
2023/02/13 12:47:30;;;;;;;;;22.50;18.75;;;;;;;;117420;1195;25227;-61
2023/02/13 12:50:17;;;;;;;;;20.00;17.00;;;;;;;;117588;1195;25143;-60
2023/02/13 12:53:00;;;;;;;;;20.00;19.00;;;;;;;;117342;1184;25700;-59
2023/02/13 12:55:28;;;;;;;;;20.00;14.00;;;;;;;;117441;1182;25058;-61
2023/02/13 12:58:42;;;;;;;;;20.67;17.00;;;;;;;;117422;1182;25417;-59
2023/02/13 13:01:13;;;;;;;;;23.50;19.00;;;;;;;;117264;1190;25493;-58
2023/02/13 13:04:08;;;;;;;;;24.50;16.50;;;;;;;;117374;1184;25630;-58
2023/02/13 13:07:01;;;;;;;;;23.00;16.00;;;;;;;;117395;1184;25589;-59
2023/02/13 13:09:51;;;;;;;;;27.00;18.00;;;;;;;;117402;1182;24837;-60
2023/02/13 13:12:28;;;;;;;;;22.50;19.00;;;;;;;;118211;1182;25473;-59
2023/02/13 13:15:06;;;;;;;;;18.67;17.67;;;;;;;;117893;1182;25281;-59
2023/02/13 13:17:51;;;;;;;;;15.50;13.00;;;;;;;;117385;1190;24887;-60
2023/02/13 13:20:41;;;;;;;;;29.00;17.00;;;;;;;;117347;1182;26111;-59
2023/02/13 13:23:20;;;;;;;;;15.00;12.33;;;;;;;;117400;1182;25624;-60
2023/02/13 13:26:10;;;;;;;;;19.00;17.00;;;;;;;;117332;1191;25696;-60
2023/02/13 13:28:47;;;;;;;;;25.67;22.67;;;;;;;;117371;1182;24919;-59
2023/02/13 13:31:16;;;;;;;;;22.00;20.50;;;;;;;;117388;1195;24916;-58
2023/02/13 13:33:46;;;;;;;;;27.50;20.50;;;;;;;;117451;1184;25522;-57
2023/02/13 13:36:45;;;;;;;;;25.00;18.00;;;;;;;;117385;1184;25412;-58
2023/02/13 13:39:32;;;;;;;;;18.00;16.50;;;;;;;;117424;1186;25525;-58
2023/02/13 13:42:12;;;;;;;;;20.50;16.00;;;;;;;;117429;1181;25295;-57
2023/02/13 13:45:22;;;;;;;;;19.00;16.00;;;;;;;;117396;1190;24744;-58
2023/02/13 13:48:05;;;;;;;;;22.67;18.33;;;;;;;;117370;1195;25096;-59
2023/02/13 13:50:37;;;;;;;;;17.00;12.00;;;;;;;;117388;1182;25009;-60
2023/02/13 13:53:14;;;;;;;;;22.67;19.67;;;;;;;;117420;1184;25678;-60
2023/02/13 13:55:46;;;;;;;;;23.00;18.00;;;;;;;;117403;1185;25034;-59
2023/02/13 13:58:39;;;;;;;;;24.00;21.00;;;;;;;;117459;1184;25012;-60
2023/02/13 14:01:14;;;;;;;;;23.50;17.00;;;;;;;;117446;1182;24912;-60
2023/02/13 14:03:47;;;;;;;;;24.00;17.00;;;;;;;;117453;1182;25661;-60
2023/02/13 14:06:43;;;;;;;;;21.33;16.33;;;;;;;;117366;1192;24996;-60
2023/02/13 14:09:27;;;;;;;;;27.00;20.00;;;;;;;;117297;1194;25492;-60
2023/02/13 14:11:57;;;;;;;;;21.00;16.00;;;;;;;;117375;1184;25168;-59
2023/02/13 14:14:31;;;;;;;;;19.50;15.00;;;;;;;;117410;1182;25020;-60
2023/02/13 14:17:03;;;;;;;;;11.00;11.00;;;;;;;;117365;1194;26992;-59
2023/02/13 14:19:33;;;;;;;;;19.00;15.00;;;;;;;;117424;1184;25724;-64
2023/02/13 14:22:23;;;;;;;;;22.00;15.75;;;;;;;;117447;1194;24961;-62
2023/02/13 14:24:57;;;;;;;;;16.50;12.00;;;;;;;;117442;1182;25733;-60
2023/02/13 14:27:36;;;;;;;;;16.50;13.50;;;;;;;;117429;1183;25327;-59
2023/02/13 14:30:25;;;;;;;;;17.50;13.50;;;;;;;;117365;1182;25090;-59
2023/02/13 14:32:54;;;;;;;;;18.50;16.00;;;;;;;;117354;1192;24770;-59
2023/02/13 14:35:26;;;;;;;;;21.00;14.00;;;;;;;;117358;1184;25310;-59
2023/02/13 14:37:57;;;;;;;;;22.50;18.00;;;;;;;;117402;1182;24810;-59
2023/02/13 14:40:51;;;;;;;;;19.50;17.00;;;;;;;;117372;1184;25185;-59
2023/02/13 14:43:54;;;;;;;;;13.50;11.75;;;;;;;;117432;1191;24716;-59
2023/02/13 14:46:34;;;;;;;;;21.00;15.00;;;;;;;;117410;1184;25369;-58
2023/02/13 14:49:19;;;;;;;;;18.00;14.00;;;;;;;;117422;1194;25115;-60
2023/02/13 14:51:54;;;;;;;;;19.00;15.00;;;;;;;;117443;1182;24872;-60
2023/02/13 14:54:33;;;;;;;;;16.75;13.00;;;;;;;;117446;1194;25555;-60
2023/02/13 14:57:21;;;;;;;;;17.00;15.00;;;;;;;;117408;1182;24738;-60
2023/02/13 14:59:53;;;;;;;;;15.00;12.50;;;;;;;;117426;1194;25340;-60
2023/02/13 15:02:39;;;;;;;;;19.00;15.00;;;;;;;;117419;1194;24933;-60
2023/02/13 15:05:19;;;;;;;;;19.50;15.50;;;;;;;;117417;1182;24981;-59
2023/02/13 15:08:04;;;;;;;;;17.67;13.00;;;;;;;;117405;1190;25067;-59
2023/02/13 15:10:48;;;;;;;;;18.50;15.75;;;;;;;;117417;1182;25503;-59
2023/02/13 15:13:18;;;;;;;;;21.50;17.00;;;;;;;;117436;1194;24720;-58
2023/02/13 15:16:17;;;;;;;;;14.50;13.50;;;;;;;;117409;1181;25708;-59
2023/02/13 15:18:51;;;;;;;;;14.00;11.00;;;;;;;;117356;1185;25001;-59
2023/02/13 15:21:23;;;;;;;;;17.50;15.00;;;;;;;;117406;1194;25521;-59
2023/02/13 15:23:56;;;;;;;;;14.50;13.50;;;;;;;;117437;1182;25492;-59
2023/02/13 15:26:27;;;;;;;;;17.00;12.00;;;;;;;;117395;1184;24851;-59
2023/02/13 15:29:16;;;;;;;;;15.33;12.33;;;;;;;;117413;1183;25543;-59
2023/02/13 15:31:58;;;;;;;;;20.00;14.67;;;;;;;;117456;1182;25115;-59
2023/02/13 15:34:31;;;;;;;;;16.00;14.00;;;;;;;;117373;1195;26036;-59
2023/02/13 15:37:00;;;;;;;;;17.00;15.00;;;;;;;;117387;1195;25704;-59
2023/02/13 15:39:30;;;;;;;;;17.50;14.25;;;;;;;;117429;1182;24863;-59
2023/02/13 15:42:00;;;;;;;;;12.00;10.00;;;;;;;;117407;1182;25111;-59
2023/02/13 15:44:34;;;;;;;;;13.00;12.00;;;;;;;;117398;1187;25297;-59
2023/02/13 15:47:06;;;;;;;;;16.00;13.00;;;;;;;;117395;1184;25637;-59
2023/02/13 15:49:41;;;;;;;;;16.00;13.00;;;;;;;;117424;1182;24716;-59
2023/02/13 15:52:18;;;;;;;;;17.00;14.00;;;;;;;;117394;1194;25421;-59